Time;durP1;ratioP1;P1;durP2;ratioP2;P2;SDS_P1;SDS_P2;PMS_P1;PMS_P2;Temp;Humidity;BMP_temperature;BMP_pressure;BME280_temperature;BME280_humidity;BME280_pressure;Samples;Min_cycle;Max_cycle;Signal;HPM_P1;HPM_P2
2022/11/20 00:02:18;;;;;;;36.92;16.60;;;;;;;-4.58;100.00;101314.47;4927759;29;20081;-74
2022/11/20 00:04:44;;;;;;;39.75;15.82;;;;;;;-4.51;100.00;101317.13;4927389;29;20122;-75
2022/11/20 00:07:09;;;;;;;35.88;15.75;;;;;;;-4.50;100.00;101312.78;4927548;29;20132;-72
2022/11/20 00:09:35;;;;;;;42.97;17.38;;;;;;;-4.45;100.00;101318.91;4927147;29;20036;-73
2022/11/20 00:12:00;;;;;;;33.55;15.95;;;;;;;-4.48;100.00;101311.94;4926699;29;20043;-74
2022/11/20 00:14:26;;;;;;;38.22;16.90;;;;;;;-4.56;100.00;101316.25;4927050;29;20441;-74
2022/11/20 00:16:51;;;;;;;31.58;16.48;;;;;;;-4.58;100.00;101311.88;4934610;29;20043;-74
2022/11/20 00:19:16;;;;;;;38.70;18.27;;;;;;;-4.66;100.00;101316.16;4932922;29;20048;-75
2022/11/20 00:21:42;;;;;;;34.20;16.67;;;;;;;-4.79;100.00;101304.81;4909884;29;20102;-74
2022/11/20 00:24:10;;;;;;;39.72;18.48;;;;;;;-4.81;100.00;101312.59;4938456;29;20051;-75
2022/11/20 00:26:36;;;;;;;36.75;17.08;;;;;;;-4.71;100.00;101310.94;4928814;29;20052;-72
2022/11/20 00:29:01;;;;;;;40.72;17.05;;;;;;;-4.82;100.00;101299.56;4919260;29;20056;-74
2022/11/20 00:31:28;;;;;;;40.55;16.38;;;;;;;-5.07;100.00;101306.31;4931042;29;20032;-75
2022/11/20 00:33:54;;;;;;;39.03;17.17;;;;;;;-5.33;100.00;101290.50;4923470;29;20036;-73
2022/11/20 00:36:21;;;;;;;37.25;17.45;;;;;;;-5.01;100.00;101286.47;4909369;29;20043;-73
2022/11/20 00:38:51;;;;;;;40.15;18.55;;;;;;;-4.75;100.00;101288.38;4940246;29;20051;-74
2022/11/20 00:41:16;;;;;;;46.30;19.65;;;;;;;-4.54;100.00;101291.09;4918103;29;20404;-73
2022/11/20 00:43:41;;;;;;;41.17;18.77;;;;;;;-4.58;100.00;101291.06;4932595;29;20054;-75
2022/11/20 00:46:11;;;;;;;50.70;19.55;;;;;;;-4.64;100.00;101289.28;4930580;29;20040;-74
2022/11/20 00:48:37;;;;;;;44.42;18.88;;;;;;;-4.79;100.00;101281.41;4939889;29;20054;-75
2022/11/20 00:51:03;;;;;;;37.85;17.77;;;;;;;-5.17;100.00;101282.00;4927500;29;20043;-75
2022/11/20 00:53:28;;;;;;;42.00;17.98;;;;;;;-5.16;100.00;101285.47;4926642;29;20048;-74
2022/11/20 00:56:01;;;;;;;41.70;17.98;;;;;;;-5.11;100.00;101284.66;4926814;29;20131;-75
2022/11/20 00:58:36;;;;;;;35.00;16.85;;;;;;;-5.24;100.00;101285.41;4927226;29;20102;-75
2022/11/20 01:01:10;;;;;;;37.50;17.95;;;;;;;-5.07;100.00;101293.31;4940421;29;20031;-73
2022/11/20 01:03:42;;;;;;;41.45;18.02;;;;;;;-5.02;100.00;101292.53;4919634;29;20046;-73
2022/11/20 01:06:20;;;;;;;44.25;18.95;;;;;;;-5.11;100.00;101292.44;4911542;29;20047;-74
2022/11/20 01:08:46;;;;;;;45.45;19.02;;;;;;;-5.02;100.00;101289.03;4926328;29;20099;-74
2022/11/20 01:11:15;;;;;;;31.75;15.93;;;;;;;-5.21;100.00;101294.09;4928424;28;20061;-74
2022/11/20 01:13:42;;;;;;;40.65;18.67;;;;;;;-5.26;100.00;101298.38;4944343;29;20082;-72
2022/11/20 01:16:10;;;;;;;41.70;18.35;;;;;;;-5.31;100.00;101284.47;4931266;29;20106;-73
2022/11/20 01:18:38;;;;;;;43.05;18.35;;;;;;;-5.47;100.00;101280.88;4919151;29;20158;-72
2022/11/20 01:21:10;;;;;;;33.25;15.85;;;;;;;-5.22;100.00;101284.56;4939299;29;20039;-75
2022/11/20 01:23:39;;;;;;;41.15;17.90;;;;;;;-5.16;100.00;101285.47;4933026;29;20039;-73
2022/11/20 01:26:08;;;;;;;40.20;18.13;;;;;;;-5.07;100.00;101283.81;4959291;28;20065;-73
2022/11/20 01:28:34;;;;;;;46.60;19.42;;;;;;;-5.23;100.00;101285.41;4938555;29;20055;-73
2022/11/20 01:31:00;;;;;;;37.85;18.00;;;;;;;-5.37;100.00;101283.53;4924675;29;20028;-73
2022/11/20 01:33:27;;;;;;;36.97;17.77;;;;;;;-5.32;100.00;101272.34;4923921;29;20044;-73
2022/11/20 01:35:52;;;;;;;38.60;17.25;;;;;;;-5.33;100.00;101278.38;4924632;29;20050;-73
2022/11/20 01:38:20;;;;;;;42.03;17.92;;;;;;;-5.28;100.00;101271.50;4924164;29;20044;-73
2022/11/20 01:40:53;;;;;;;41.08;18.13;;;;;;;-5.25;100.00;101270.66;4941018;29;20043;-73
2022/11/20 01:43:22;;;;;;;40.40;18.40;;;;;;;-5.24;100.00;101273.28;4946472;28;20460;-73
2022/11/20 01:46:26;;;;;;;37.80;16.92;;;;;;;-5.34;100.00;101263.66;4928379;29;20032;-72
2022/11/20 01:49:16;;;;;;;39.17;18.20;;;;;;;-5.40;100.00;101270.53;4830917;29;20057;-74
2022/11/20 01:51:52;;;;;;;37.13;16.60;;;;;;;-5.33;100.00;101264.53;4846738;29;20041;-72
2022/11/20 01:54:30;;;;;;;41.60;17.10;;;;;;;-5.27;100.00;101265.47;4846866;29;20061;-73
2022/11/20 01:56:57;;;;;;;39.40;18.60;;;;;;;-5.22;100.00;101265.50;4847393;29;20148;-72
2022/11/20 01:59:26;;;;;;;35.80;16.10;;;;;;;-5.28;100.00;101255.03;4846487;29;20041;-73
2022/11/20 02:01:52;;;;;;;35.42;16.25;;;;;;;-5.28;100.00;101253.31;4847255;29;20813;-74
2022/11/20 02:04:18;;;;;;;35.53;16.27;;;;;;;-5.36;100.00;101247.19;4847064;29;20046;-75
2022/11/20 02:06:49;;;;;;;37.15;17.17;;;;;;;-5.23;100.00;101250.75;4831310;29;20069;-74
2022/11/20 02:09:16;;;;;;;34.80;16.35;;;;;;;-5.25;100.00;101255.06;4847153;29;20780;-73
2022/11/20 02:11:41;;;;;;;42.80;17.77;;;;;;;-5.22;100.00;101250.78;4846994;29;20844;-73
2022/11/20 02:14:07;;;;;;;39.70;16.80;;;;;;;-5.24;100.00;101252.47;4847209;29;20053;-73
2022/11/20 02:16:52;;;;;;;34.45;15.82;;;;;;;-5.15;100.00;101245.63;4846910;29;20053;-73
2022/11/20 02:19:28;;;;;;;37.83;15.95;;;;;;;-5.14;100.00;101244.75;4869722;29;20421;-74
2022/11/20 02:21:59;;;;;;;40.47;16.02;;;;;;;-5.14;100.00;101243.03;4942413;29;20067;-74
2022/11/20 02:24:25;;;;;;;34.20;15.65;;;;;;;-5.04;100.00;101243.97;4938547;28;20056;-74
2022/11/20 02:26:53;;;;;;;41.92;16.33;;;;;;;-4.97;100.00;101238.81;4924672;29;20116;-74
2022/11/20 02:29:27;;;;;;;38.13;16.15;;;;;;;-4.88;100.00;101239.72;4938855;29;20139;-73
2022/11/20 02:31:55;;;;;;;35.50;16.25;;;;;;;-4.83;100.00;101238.88;4907741;29;20062;-73
2022/11/20 02:34:20;;;;;;;37.95;16.65;;;;;;;-4.84;100.00;101234.53;4907559;29;20135;-74
2022/11/20 02:36:48;;;;;;;35.67;15.88;;;;;;;-4.99;100.00;101237.94;4925022;29;20043;-74
2022/11/20 02:39:16;;;;;;;29.67;15.43;;;;;;;-5.07;100.00;101239.63;4925334;29;20038;-74
2022/11/20 02:41:42;;;;;;;36.72;15.90;;;;;;;-5.15;100.00;101241.28;4924855;29;20047;-73
2022/11/20 02:44:10;;;;;;;33.35;16.95;;;;;;;-5.19;100.00;101241.25;4907881;29;20063;-72
2022/11/20 02:46:36;;;;;;;38.33;16.88;;;;;;;-5.26;100.00;101240.34;4924662;29;20082;-73
2022/11/20 02:49:03;;;;;;;38.40;17.27;;;;;;;-5.28;100.00;101242.91;4924481;29;20040;-73
2022/11/20 02:51:29;;;;;;;36.95;16.30;;;;;;;-5.33;100.00;101242.00;4925294;29;20071;-74
2022/11/20 02:53:55;;;;;;;38.75;16.58;;;;;;;-5.30;100.00;101231.66;4924645;29;20040;-74
2022/11/20 02:56:20;;;;;;;35.20;15.55;;;;;;;-5.36;100.00;101241.13;4931765;29;20031;-73
2022/11/20 02:58:46;;;;;;;37.15;16.88;;;;;;;-5.28;100.00;101240.31;4913228;29;20118;-73
2022/11/20 03:01:12;;;;;;;46.70;18.67;;;;;;;-5.30;100.00;101239.44;4929091;29;20039;-75
2022/11/20 03:03:37;;;;;;;34.75;15.80;;;;;;;-5.26;100.00;101236.00;4914241;29;20042;-74
2022/11/20 03:06:03;;;;;;;40.92;15.98;;;;;;;-5.28;100.00;101231.66;4923122;29;20400;-72
2022/11/20 03:08:29;;;;;;;40.25;17.10;;;;;;;-5.33;100.00;101231.63;4906004;29;20044;-75
2022/11/20 03:10:54;;;;;;;37.20;16.67;;;;;;;-5.62;100.00;101236.59;4923270;29;20070;-74
2022/11/20 03:13:20;;;;;;;33.13;14.32;;;;;;;-5.86;100.00;101233.75;4923683;29;20031;-72
2022/11/20 03:15:45;;;;;;;32.05;15.30;;;;;;;-5.67;100.00;101230.50;4906069;29;20707;-73
2022/11/20 03:18:10;;;;;;;37.15;16.20;;;;;;;-5.54;100.00;101229.72;4923066;29;20090;-73
2022/11/20 03:20:36;;;;;;;35.30;15.75;;;;;;;-5.59;100.00;101230.53;4924168;29;20156;-74
2022/11/20 03:23:02;;;;;;;34.45;16.30;;;;;;;-5.68;100.00;101228.72;4923674;29;20035;-73
2022/11/20 03:25:27;;;;;;;37.13;15.85;;;;;;;-5.70;100.00;101217.47;4923918;29;20035;-73
2022/11/20 03:27:53;;;;;;;40.67;17.02;;;;;;;-5.67;100.00;101209.72;4924425;29;20083;-73
2022/11/20 03:30:19;;;;;;;33.92;16.17;;;;;;;-5.75;100.00;101211.34;4922788;29;20051;-72
2022/11/20 03:32:44;;;;;;;34.75;15.63;;;;;;;-5.87;100.00;101198.28;4922806;29;20071;-74
2022/11/20 03:35:10;;;;;;;33.15;16.23;;;;;;;-5.92;100.00;101194.75;4923853;29;20067;-72
2022/11/20 03:37:35;;;;;;;36.78;15.82;;;;;;;-5.72;100.00;101203.59;4927112;29;20051;-74
2022/11/20 03:40:01;;;;;;;39.15;16.88;;;;;;;-5.60;100.00;101193.31;4927306;29;20039;-74
2022/11/20 03:42:44;;;;;;;40.03;16.27;;;;;;;-5.60;100.00;101197.63;4935498;29;20506;-74
2022/11/20 03:45:10;;;;;;;38.35;14.93;;;;;;;-5.57;100.00;101193.34;4931600;29;20046;-74
2022/11/20 03:47:36;;;;;;;35.92;15.40;;;;;;;-5.59;100.00;101200.22;4928299;29;20031;-73
2022/11/20 03:50:01;;;;;;;41.20;17.35;;;;;;;-5.55;100.00;101206.34;4928482;29;20035;-72
2022/11/20 03:52:26;;;;;;;36.88;16.42;;;;;;;-5.59;100.00;101204.56;4928434;29;20127;-74
2022/11/20 03:54:52;;;;;;;40.97;16.27;;;;;;;-5.68;100.00;101205.34;4928247;29;20855;-75
2022/11/20 03:57:17;;;;;;;34.53;15.38;;;;;;;-5.65;100.00;101204.50;4928081;29;20043;-75
2022/11/20 03:59:42;;;;;;;46.85;16.52;;;;;;;-5.59;100.00;101199.38;4928490;29;20035;-74
2022/11/20 04:02:08;;;;;;;33.58;15.98;;;;;;;-5.68;100.00;101200.16;4928017;29;20492;-74
2022/11/20 04:04:33;;;;;;;35.85;16.60;;;;;;;-5.66;100.00;101201.06;4928810;29;20055;-74
2022/11/20 04:06:59;;;;;;;33.03;15.07;;;;;;;-5.65;100.00;101191.53;4927954;29;20150;-74
2022/11/20 04:09:24;;;;;;;38.30;15.60;;;;;;;-5.77;100.00;101198.38;4927500;29;20531;-73
2022/11/20 04:11:49;;;;;;;37.83;15.82;;;;;;;-5.79;100.00;101191.41;4921009;29;20040;-73
2022/11/20 04:14:16;;;;;;;31.85;14.50;;;;;;;-5.90;100.00;101195.63;4927320;29;20142;-74
2022/11/20 04:16:42;;;;;;;38.00;16.08;;;;;;;-5.87;100.00;101198.28;4927469;29;20589;-74
2022/11/20 04:19:14;;;;;;;38.92;16.85;;;;;;;-6.13;100.00;101195.44;4927495;29;20052;-75
2022/11/20 04:21:39;;;;;;;35.97;16.92;;;;;;;-6.00;100.00;101198.16;4927408;29;20035;-74
2022/11/20 04:24:05;;;;;;;33.67;14.93;;;;;;;-6.07;100.00;101204.16;4927366;29;20654;-73
2022/11/20 04:26:31;;;;;;;31.27;14.32;;;;;;;-6.09;100.00;101197.22;4927784;29;20040;-72
2022/11/20 04:28:57;;;;;;;33.13;14.93;;;;;;;-6.06;100.00;101192.94;4927217;29;20297;-73
2022/11/20 04:31:26;;;;;;;32.45;15.63;;;;;;;-6.04;100.00;101186.00;4926839;29;20567;-73
2022/11/20 04:33:51;;;;;;;33.50;14.75;;;;;;;-5.95;100.00;101187.84;4927777;29;20036;-74
2022/11/20 04:36:22;;;;;;;37.63;16.02;;;;;;;-6.26;100.00;101178.88;4927673;29;20642;-73
2022/11/20 04:38:54;;;;;;;36.95;14.98;;;;;;;-6.17;100.00;101183.31;4926398;29;20047;-74
2022/11/20 04:41:30;;;;;;;35.25;15.98;;;;;;;-6.18;100.00;101176.34;4939695;29;20050;-74
2022/11/20 04:43:59;;;;;;;36.05;16.67;;;;;;;-6.30;100.00;101169.31;4915289;29;20046;-73
2022/11/20 04:46:26;;;;;;;32.80;14.75;;;;;;;-6.28;100.00;101176.25;4928187;29;20883;-75
2022/11/20 04:48:52;;;;;;;33.10;14.95;;;;;;;-6.31;100.00;101173.63;4926030;29;20042;-74
2022/11/20 04:51:17;;;;;;;28.23;13.40;;;;;;;-6.64;100.00;101176.72;4928961;29;20558;-74
2022/11/20 04:53:43;;;;;;;35.85;15.90;;;;;;;-6.39;100.00;101169.22;4927600;29;20047;-74
2022/11/20 04:56:10;;;;;;;40.53;16.73;;;;;;;-6.27;100.00;101172.81;4927456;29;20039;-74
2022/11/20 04:58:37;;;;;;;35.10;15.20;;;;;;;-6.27;100.00;101166.78;4928491;29;20099;-73
2022/11/20 05:01:08;;;;;;;38.78;16.27;;;;;;;-6.29;100.00;101169.31;4925465;29;20028;-74
2022/11/20 05:03:33;;;;;;;37.30;16.00;;;;;;;-6.22;100.00;101172.88;4922899;29;20131;-74
2022/11/20 05:06:05;;;;;;;37.92;15.60;;;;;;;-6.13;100.00;101167.75;4930611;29;20122;-75
2022/11/20 05:08:31;;;;;;;43.42;16.23;;;;;;;-6.11;100.00;101168.66;4944276;29;20075;-73
2022/11/20 05:11:11;;;;;;;40.88;15.90;;;;;;;-6.17;100.00;101171.19;4939710;29;20079;-73
2022/11/20 05:13:36;;;;;;;36.90;15.68;;;;;;;-6.09;100.00;101177.31;4927848;29;20043;-74
2022/11/20 05:16:07;;;;;;;40.92;16.90;;;;;;;-6.03;100.00;101174.78;4938197;29;20035;-75
2022/11/20 05:18:33;;;;;;;36.47;16.23;;;;;;;-6.12;100.00;101164.31;4909805;29;20136;-74
2022/11/20 05:20:59;;;;;;;37.03;16.40;;;;;;;-6.14;100.00;101170.34;4938668;29;20414;-75
2022/11/20 05:23:26;;;;;;;35.72;16.05;;;;;;;-6.59;100.00;101163.81;4920216;29;20052;-75
2022/11/20 05:25:53;;;;;;;30.38;12.93;;;;;;;-6.61;100.00;101162.94;4940766;29;20054;-73
2022/11/20 05:28:19;;;;;;;33.22;14.60;;;;;;;-6.47;100.00;101160.50;4925667;29;20083;-73
2022/11/20 05:30:44;;;;;;;33.10;15.93;;;;;;;-6.73;100.00;101149.81;4945228;29;20051;-74
2022/11/20 05:33:10;;;;;;;37.88;16.35;;;;;;;-6.53;100.00;101156.97;4912831;29;20130;-73
2022/11/20 05:35:35;;;;;;;37.35;16.02;;;;;;;-6.50;100.00;101153.53;4908560;29;20043;-72
2022/11/20 05:38:01;;;;;;;39.72;15.93;;;;;;;-6.94;100.00;101160.78;4925722;29;20044;-74
2022/11/20 05:40:26;;;;;;;41.00;17.55;;;;;;;-6.87;100.00;101152.25;4913378;29;20821;-74
2022/11/20 05:42:51;;;;;;;37.63;16.08;;;;;;;-6.68;100.00;101154.19;4927558;29;20047;-73
2022/11/20 05:45:17;;;;;;;35.28;16.55;;;;;;;-6.70;100.00;101153.31;4935790;29;20031;-74
2022/11/20 05:47:42;;;;;;;39.85;16.98;;;;;;;-6.77;100.00;101154.09;4925889;29;20097;-73
2022/11/20 05:50:08;;;;;;;35.22;15.88;;;;;;;-6.43;100.00;101155.34;4908602;29;20044;-73
2022/11/20 05:52:33;;;;;;;40.30;17.35;;;;;;;-6.38;100.00;101155.38;4908605;29;20051;-74
2022/11/20 05:54:58;;;;;;;52.42;17.92;;;;;;;-6.40;100.00;101165.75;4925842;29;20066;-74
2022/11/20 05:57:24;;;;;;;33.85;16.90;;;;;;;-6.32;100.00;101166.72;4907768;29;20731;-75
2022/11/20 05:59:49;;;;;;;37.13;16.10;;;;;;;-6.47;100.00;101158.78;4907864;29;20138;-73
2022/11/20 06:02:14;;;;;;;44.08;16.92;;;;;;;-6.92;100.00;101159.09;4938835;29;20031;-74
2022/11/20 06:04:40;;;;;;;41.38;16.75;;;;;;;-6.71;100.00;101154.16;4925704;29;20082;-74
2022/11/20 06:07:06;;;;;;;35.88;15.50;;;;;;;-6.59;100.00;101151.69;4926055;29;20139;-74
2022/11/20 06:09:32;;;;;;;37.60;16.75;;;;;;;-6.62;100.00;101161.19;4926338;29;20043;-73
2022/11/20 06:11:57;;;;;;;38.05;16.80;;;;;;;-6.56;100.00;101154.34;4908766;29;20054;-75
2022/11/20 06:14:23;;;;;;;39.85;17.25;;;;;;;-6.52;100.00;101157.84;4925815;29;20070;-74
2022/11/20 06:16:48;;;;;;;44.70;18.83;;;;;;;-6.46;100.00;101162.22;4918759;29;20047;-73
2022/11/20 06:19:14;;;;;;;41.92;17.13;;;;;;;-6.46;100.00;101167.41;4928363;29;20060;-75
2022/11/20 06:21:40;;;;;;;43.38;15.98;;;;;;;-6.41;100.00;101166.63;4925259;29;20207;-74
2022/11/20 06:24:06;;;;;;;39.83;16.58;;;;;;;-6.38;100.00;101166.63;4907820;29;20472;-74
2022/11/20 06:26:31;;;;;;;38.78;16.45;;;;;;;-6.50;100.00;101163.03;4925274;29;20058;-74
2022/11/20 06:28:56;;;;;;;42.00;17.02;;;;;;;-6.55;100.00;101176.81;4924854;29;20661;-73
2022/11/20 06:31:24;;;;;;;48.33;20.50;;;;;;;-6.61;100.00;101175.91;4924992;29;20163;-74
2022/11/20 06:33:53;;;;;;;42.85;18.98;;;;;;;-6.53;100.00;101171.66;4924823;29;20075;-74
2022/11/20 06:36:21;;;;;;;49.83;19.10;;;;;;;-6.57;100.00;101175.94;4926945;29;20052;-72
2022/11/20 06:38:48;;;;;;;47.80;19.73;;;;;;;-6.59;100.00;101175.03;4925023;29;20459;-74
2022/11/20 06:41:16;;;;;;;37.85;16.00;;;;;;;-6.75;100.00;101174.84;4925648;29;20122;-73
2022/11/20 06:43:42;;;;;;;39.00;16.33;;;;;;;-6.78;100.00;101179.16;4926520;29;20769;-75
2022/11/20 06:46:10;;;;;;;37.53;16.25;;;;;;;-6.72;100.00;101178.34;4925030;29;20071;-74
2022/11/20 06:48:36;;;;;;;48.75;16.67;;;;;;;-6.66;100.00;101180.16;4907775;29;20043;-73
2022/11/20 06:51:04;;;;;;;42.30;17.33;;;;;;;-6.68;100.00;101180.13;4930919;29;20163;-73
2022/11/20 06:53:29;;;;;;;43.85;17.63;;;;;;;-6.59;100.00;101184.56;4918644;29;20575;-74
2022/11/20 06:55:57;;;;;;;43.08;17.70;;;;;;;-6.63;100.00;101175.84;4925212;29;20036;-73
2022/11/20 06:58:23;;;;;;;48.42;20.83;;;;;;;-6.65;100.00;101182.75;4933729;29;20039;-74
2022/11/20 07:00:48;;;;;;;49.97;19.25;;;;;;;-6.53;100.00;101182.03;4933555;29;20550;-75
2022/11/20 07:03:14;;;;;;;44.15;18.58;;;;;;;-6.50;100.00;101188.97;4915011;29;20074;-73
2022/11/20 07:05:40;;;;;;;44.92;19.17;;;;;;;-6.51;100.00;101190.72;4909178;29;20058;-74
2022/11/20 07:08:06;;;;;;;40.90;18.52;;;;;;;-6.56;100.00;101189.78;4923358;29;20219;-74
2022/11/20 07:10:32;;;;;;;40.08;18.23;;;;;;;-6.60;100.00;101188.00;4928809;29;20032;-75
2022/11/20 07:12:57;;;;;;;48.25;18.52;;;;;;;-6.64;100.00;101179.31;4925719;29;20759;-73
2022/11/20 07:15:24;;;;;;;44.13;16.45;;;;;;;-6.61;100.00;101179.34;4929433;29;20152;-75
2022/11/20 07:17:50;;;;;;;42.67;16.67;;;;;;;-6.66;100.00;101181.03;4930820;29;20078;-75
2022/11/20 07:20:16;;;;;;;41.53;17.45;;;;;;;-6.57;100.00;101183.72;4933536;29;20035;-74
2022/11/20 07:22:42;;;;;;;42.20;18.40;;;;;;;-6.50;100.00;101179.47;4916915;29;20147;-73
2022/11/20 07:25:08;;;;;;;42.22;17.30;;;;;;;-6.47;100.00;101174.34;4930107;29;20059;-74
2022/11/20 07:27:34;;;;;;;39.40;17.38;;;;;;;-6.52;100.00;101176.88;4930184;29;20476;-75
2022/11/20 07:29:59;;;;;;;43.67;18.45;;;;;;;-6.33;100.00;101174.47;4926359;29;20040;-72
2022/11/20 07:32:25;;;;;;;37.55;16.92;;;;;;;-6.49;100.00;101175.16;4928634;29;20075;-74
2022/11/20 07:34:50;;;;;;;43.50;17.88;;;;;;;-6.54;100.00;101175.97;4910955;29;20048;-74
2022/11/20 07:37:16;;;;;;;42.20;17.77;;;;;;;-6.42;100.00;101167.47;4911200;29;20052;-74
2022/11/20 07:39:41;;;;;;;41.42;18.55;;;;;;;-6.21;100.00;101163.38;4928152;29;20047;-75
2022/11/20 07:42:08;;;;;;;41.75;19.30;;;;;;;-6.07;100.00;101161.78;4933284;29;20443;-75
2022/11/20 07:44:36;;;;;;;39.50;18.65;;;;;;;-5.88;100.00;101162.75;4918994;29;20114;-74
2022/11/20 07:47:01;;;;;;;46.20;21.25;;;;;;;-5.91;100.00;101166.22;4932035;29;20911;-76
2022/11/20 07:49:27;;;;;;;42.33;19.42;;;;;;;-5.86;100.00;101166.25;4936643;29;20095;-75
2022/11/20 07:51:53;;;;;;;45.08;18.80;;;;;;;-5.74;100.00;101164.63;4936920;29;20043;-73
2022/11/20 07:54:20;;;;;;;33.88;17.13;;;;;;;-5.63;100.00;101163.84;4931841;29;20119;-75
2022/11/20 07:56:46;;;;;;;40.40;18.42;;;;;;;-5.66;100.00;101162.09;4931325;29;20050;-74
2022/11/20 07:59:15;;;;;;;43.05;18.67;;;;;;;-5.45;100.00;101165.72;4937654;29;20075;-75
2022/11/20 08:01:41;;;;;;;39.85;18.13;;;;;;;-5.46;100.00;101162.25;4939597;29;20031;-74
2022/11/20 08:04:06;;;;;;;39.05;17.75;;;;;;;-5.37;100.00;101154.53;4947216;28;20052;-73
2022/11/20 08:06:32;;;;;;;42.55;18.05;;;;;;;-5.44;100.00;101157.06;4938254;29;20042;-75
2022/11/20 08:08:58;;;;;;;40.65;18.27;;;;;;;-5.26;100.00;101155.44;4939501;29;20032;-74
2022/11/20 08:14:13;;;;;;;38.45;17.65;;;;;;;-4.95;100.00;101153.03;4924283;29;20887;-74
2022/11/20 08:16:47;;;;;;;37.72;18.27;;;;;;;-4.84;100.00;101140.94;4935798;29;20047;-72
2022/11/20 08:19:13;;;;;;;40.15;17.25;;;;;;;-4.68;100.00;101149.66;4940511;29;20081;-73
2022/11/20 08:21:40;;;;;;;42.72;20.20;;;;;;;-4.60;100.00;101147.97;4940839;28;20151;-74
2022/11/20 08:24:06;;;;;;;42.35;17.95;;;;;;;-4.44;100.00;101144.53;4918115;29;20078;-73
2022/11/20 08:26:31;;;;;;;41.90;19.70;;;;;;;-4.34;100.00;101152.38;4929511;29;20083;-74
2022/11/20 08:28:57;;;;;;;40.60;18.98;;;;;;;-4.26;100.00;101156.75;4921921;29;20065;-73
2022/11/20 08:31:27;;;;;;;40.63;18.35;;;;;;;-4.14;100.00;101155.03;4939462;29;20499;-74
2022/11/20 08:33:53;;;;;;;48.15;20.10;;;;;;;-4.06;100.00;101153.31;4938887;29;20050;-74
2022/11/20 08:36:20;;;;;;;45.50;20.65;;;;;;;-3.89;100.00;101148.09;4924614;29;20164;-73
2022/11/20 08:38:50;;;;;;;40.28;20.58;;;;;;;-3.74;100.00;101146.38;4932532;29;20044;-73
2022/11/20 08:41:28;;;;;;;48.78;21.13;;;;;;;-3.53;100.00;101135.06;4938258;29;20051;-74
2022/11/20 08:44:06;;;;;;;40.63;19.40;;;;;;;-3.47;100.00;101140.25;4911672;29;20567;-73
2022/11/20 08:46:37;;;;;;;41.90;19.15;;;;;;;-3.34;100.00;101127.22;4919944;29;20097;-74
2022/11/20 08:49:04;;;;;;;48.08;21.70;;;;;;;-3.10;100.00;101131.53;4937880;29;20114;-74
2022/11/20 08:51:30;;;;;;;48.22;20.25;;;;;;;-3.12;100.00;101140.19;4934988;29;20040;-74
2022/11/20 08:53:55;;;;;;;43.22;21.90;;;;;;;-2.91;100.00;101134.06;4911574;29;20700;-75
2022/11/20 08:56:21;;;;;;;43.63;20.77;;;;;;;-3.01;100.00;101128.84;4934286;29;20113;-74
2022/11/20 08:58:46;;;;;;;40.92;20.33;;;;;;;-2.95;100.00;101123.66;4936226;29;20513;-74
2022/11/20 09:01:11;;;;;;;46.42;21.92;;;;;;;-3.05;100.00;101121.94;4921008;29;20055;-75
2022/11/20 09:03:37;;;;;;;50.47;22.30;;;;;;;-2.95;100.00;101118.44;4930141;29;20131;-75
2022/11/20 09:06:05;;;;;;;50.00;23.42;;;;;;;-3.04;100.00;101114.09;4917945;29;20039;-75
2022/11/20 09:08:32;;;;;;;46.13;22.85;;;;;;;-3.06;100.00;101126.28;4914379;29;20052;-74
2022/11/20 09:10:58;;;;;;;53.13;23.00;;;;;;;-2.95;100.00;101121.03;4930660;29;20031;-74
2022/11/20 09:13:25;;;;;;;58.33;25.42;;;;;;;-2.87;100.00;101107.06;4941520;29;20074;-74
2022/11/20 09:15:56;;;;;;;53.95;25.88;;;;;;;-2.73;100.00;101103.53;4939905;29;20048;-74
2022/11/20 09:18:22;;;;;;;55.13;25.33;;;;;;;-2.46;100.00;101108.63;4938479;29;20147;-75
2022/11/20 09:20:47;;;;;;;45.90;23.13;;;;;;;-2.50;100.00;101103.44;4911775;29;20118;-75
2022/11/20 09:23:13;;;;;;;54.33;22.45;;;;;;;-2.29;100.00;101105.91;4927693;29;20050;-75
2022/11/20 09:25:38;;;;;;;52.75;23.45;;;;;;;-2.10;100.00;101098.81;4937996;29;20050;-74
2022/11/20 09:28:04;;;;;;;58.75;24.38;;;;;;;-1.96;100.00;101096.06;4937775;29;20091;-74
2022/11/20 09:30:30;;;;;;;56.85;25.48;;;;;;;-1.94;100.00;101096.94;4930068;29;20051;-75
2022/11/20 09:32:56;;;;;;;51.28;23.92;;;;;;;-1.73;100.00;101090.66;4943336;28;20054;-74
2022/11/20 09:35:22;;;;;;;54.28;24.92;;;;;;;-1.47;100.00;101086.03;4927276;29;20122;-74
2022/11/20 09:37:47;;;;;;;53.38;25.13;;;;;;;-1.27;100.00;101078.00;4911750;29;20386;-75
2022/11/20 09:40:31;;;;;;;52.22;24.05;;;;;;;-0.96;100.00;101080.25;4917330;29;20044;-74
2022/11/20 09:43:20;;;;;;;51.03;24.65;;;;;;;-0.86;100.00;101079.25;4933364;29;20130;-75
2022/11/20 09:45:59;;;;;;;54.88;26.27;;;;;;;-0.83;100.00;101080.09;4881377;29;20059;-75
2022/11/20 09:48:56;;;;;;;62.05;25.95;;;;;;;-0.63;100.00;101085.06;4940473;29;20057;-74
2022/11/20 09:51:35;;;;;;;52.33;26.88;;;;;;;-0.39;100.00;101083.00;4923033;29;20043;-74
2022/11/20 09:54:26;;;;;;;49.15;25.65;;;;;;;-0.28;100.00;101083.69;4933381;29;20035;-75
2022/11/20 09:56:58;;;;;;;54.30;26.63;;;;;;;-0.39;100.00;101083.00;4916284;29;20055;-74
2022/11/20 09:59:31;;;;;;;56.88;28.08;;;;;;;-0.45;100.00;101076.09;4930246;29;20071;-74
2022/11/20 10:01:59;;;;;;;50.17;25.05;;;;;;;-0.25;100.00;101075.78;4944293;29;20047;-75
2022/11/20 10:04:24;;;;;;;55.35;24.27;;;;;;;-0.44;100.00;101064.72;4951395;28;20846;-74
2022/11/20 10:07:07;;;;;;;46.72;24.25;;;;;;;-0.26;100.00;101067.03;4937953;29;20027;-73
2022/11/20 10:09:36;;;;;;;47.22;25.48;;;;;;;-0.08;100.00;101067.66;4932106;29;20047;-74
2022/11/20 10:12:20;;;;;;;54.88;25.67;;;;;;;-0.13;100.00;101062.50;4915595;29;20046;-74
2022/11/20 10:15:10;;;;;;;54.03;26.42;;;;;;;-0.01;100.00;101057.03;4917836;29;20043;-74
2022/11/20 10:17:58;;;;;;;56.30;27.08;;;;;;;0.07;100.00;101056.06;4931106;29;20023;-75
2022/11/20 10:20:23;;;;;;;59.15;28.00;;;;;;;0.20;100.00;101044.44;4945089;28;20534;-74
2022/11/20 10:23:44;;;;;;;56.95;28.25;;;;;;;0.42;100.00;101040.56;4941897;29;20047;-75
2022/11/20 10:26:35;;;;;;;59.60;28.00;;;;;;;0.35;100.00;101036.34;4917835;29;20047;-74
2022/11/20 10:29:13;;;;;;;56.63;28.30;;;;;;;0.24;100.00;101033.88;4928604;29;20032;-74
2022/11/20 10:31:52;;;;;;;59.30;28.00;;;;;;;0.38;100.00;101038.88;4942124;29;20048;-75
2022/11/20 10:34:25;;;;;;;54.70;26.65;;;;;;;0.47;100.00;101027.38;4929849;29;20035;-74
2022/11/20 10:36:56;;;;;;;49.10;25.48;;;;;;;0.74;100.00;101026.81;4926822;29;20055;-74
2022/11/20 10:39:58;;;;;;;54.97;27.00;;;;;;;0.67;100.00;101017.34;4928079;29;20091;-75
2022/11/20 10:42:37;;;;;;;52.15;27.23;;;;;;;1.19;100.00;101018.88;4927680;29;20078;-74
2022/11/20 10:45:19;;;;;;;54.97;27.90;;;;;;;0.98;100.00;101009.72;4930402;29;20086;-74
2022/11/20 10:47:45;;;;;;;57.38;27.02;;;;;;;1.16;100.00;101005.84;4930980;29;20055;-74
2022/11/20 10:50:17;;;;;;;54.25;27.73;;;;;;;1.11;100.00;101001.59;4922348;29;20048;-75
2022/11/20 10:52:42;;;;;;;;;;;;;;;1.21;100.00;101006.59;4933962;29;20127;-73
2022/11/20 10:55:30;;;;;;;63.20;29.33;;;;;;;1.53;100.00;101008.47;4925772;29;20053;-75
2022/11/20 10:58:22;;;;;;;54.60;27.25;;;;;;;1.42;100.00;100999.97;4912992;29;20058;-75
2022/11/20 11:00:47;;;;;;;56.63;27.17;;;;;;;1.11;100.00;101005.06;4931362;29;20082;-75
2022/11/20 11:03:30;;;;;;;54.78;26.50;;;;;;;0.64;100.00;101001.66;4938594;29;20130;-75
2022/11/20 11:06:06;;;;;;;55.67;26.70;;;;;;;0.65;100.00;101006.03;4938234;29;20118;-75
2022/11/20 11:08:37;;;;;;;56.88;26.50;;;;;;;0.70;100.00;101001.56;4927987;29;20047;-76
2022/11/20 11:11:20;;;;;;;52.67;26.35;;;;;;;0.55;100.00;100993.97;4934252;29;20095;-76
2022/11/20 11:13:45;;;;;;;;;;;;;;;0.40;100.00;100976.78;4932195;29;20051;-74